Time;durP1;ratioP1;P1;durP2;ratioP2;P2;SDS_P1;SDS_P2;PMS_P1;PMS_P2;Temp;Humidity;BMP_temperature;BMP_pressure;BME280_temperature;BME280_humidity;BME280_pressure;Samples;Min_cycle;Max_cycle;Signal;HPM_P1;HPM_P2
2022/02/21 00:00:21;;;;;;;13.65;5.72;;;;;;;4.90;48.06;92308.91;4968230;28;20379;-89
2022/02/21 00:03:10;;;;;;;15.90;6.65;;;;;;;5.00;48.59;92321.91;4975601;28;20590;-89
2022/02/21 00:05:51;;;;;;;17.92;6.57;;;;;;;5.16;49.61;92327.94;4982854;28;20134;-87
2022/02/21 00:08:35;;;;;;;23.05;7.38;;;;;;;5.02;49.77;92306.84;4976741;28;20030;-87
2022/02/21 00:11:22;;;;;;;21.48;7.63;;;;;;;5.25;50.59;92336.78;4940335;28;20045;-87
2022/02/21 00:14:15;;;;;;;27.58;8.55;;;;;;;5.33;51.36;92330.28;4966863;28;20081;-88
2022/02/21 00:16:54;;;;;;;23.38;8.82;;;;;;;5.51;51.78;92355.75;4977126;28;20066;-87
2022/02/21 00:19:40;;;;;;;22.55;8.00;;;;;;;5.12;52.07;92293.91;4966915;28;20042;-88
2022/02/21 00:22:21;;;;;;;25.15;8.70;;;;;;;5.33;51.85;92318.06;4946166;28;20046;-88
2022/02/21 00:25:29;;;;;;;29.40;8.73;;;;;;;5.05;52.25;92270.03;4974061;28;20044;-88
2022/02/21 00:28:09;;;;;;;30.13;8.73;;;;;;;5.11;52.58;92279.41;4965094;28;20027;-88
2022/02/21 00:30:45;;;;;;;22.15;8.00;;;;;;;5.43;53.16;92322.53;4959871;28;20038;-90
2022/02/21 00:33:18;;;;;;;25.60;8.52;;;;;;;5.11;53.74;92269.03;4960283;28;20038;-88
2022/02/21 00:35:55;;;;;;;35.08;12.63;;;;;;;4.97;54.14;92244.59;4959712;28;20050;-88
2022/02/21 00:38:30;;;;;;;72.47;23.90;;;;;;;4.91;54.73;92238.63;4961230;28;20042;-87
2022/02/21 00:41:14;;;;;;;42.72;15.45;;;;;;;4.89;55.18;92245.13;4960478;28;20043;-88
2022/02/21 00:47:28;;;;;;;36.33;12.95;;;;;;;4.71;55.33;92213.44;4976428;28;20504;-88
2022/02/21 00:50:09;;;;;;;;;;;;;;;;;;;;;
2022/02/21 00:53:28;;;;;;;;;;;;;;;;;;;;;
2022/02/21 00:56:33;;;;;;;34.90;12.10;;;;;;;4.97;56.21;92247.97;4970448;28;20033;-88
2022/02/21 00:59:20;;;;;;;87.32;27.70;;;;;;;4.66;56.75;92200.47;4970464;28;20047;-89
2022/02/21 01:01:49;;;;;;;91.90;28.38;;;;;;;4.75;56.99;92224.84;4948463;28;20065;-88
2022/02/21 01:04:42;;;;;;;;;;;;;;;;;;;;;
2022/02/21 01:07:20;;;;;;;45.80;16.67;;;;;;;4.59;56.93;92208.47;4985540;28;20041;-88
2022/02/21 01:10:16;;;;;;;36.03;14.60;;;;;;;4.80;57.04;92232.63;4986157;28;20112;-88
2022/02/21 01:12:53;;;;;;;33.88;13.15;;;;;;;4.56;57.76;92190.06;4967497;28;20041;-88
2022/02/21 01:15:35;;;;;;;30.88;12.35;;;;;;;4.70;57.91;92205.91;4966772;28;20042;-88
2022/02/21 01:18:14;;;;;;;36.25;12.25;;;;;;;4.58;58.26;92178.38;4984461;28;20054;-89
2022/02/21 01:21:12;;;;;;;48.30;15.63;;;;;;;4.99;58.54;92245.13;4968413;28;20038;-89
2022/02/21 01:24:06;;;;;;;34.90;12.85;;;;;;;4.73;58.74;92206.19;4972017;28;20403;-88
2022/02/21 01:26:56;;;;;;;43.22;14.57;;;;;;;4.51;59.56;92161.53;4971709;28;20045;-89
2022/02/21 01:29:49;;;;;;;;;;;;;;;;;;;;;
2022/02/21 01:32:55;;;;;;;44.28;14.20;;;;;;;4.64;60.61;92176.59;4963109;28;20046;-88
2022/02/21 01:35:25;;;;;;;52.67;16.98;;;;;;;4.51;60.78;92159.72;4964304;28;20056;-90
2022/02/21 01:38:26;;;;;;;41.55;14.63;;;;;;;4.57;61.36;92176.03;4997810;28;20129;-89
2022/02/21 01:40:59;;;;;;;35.60;12.27;;;;;;;4.93;60.58;92228.78;4976862;28;20061;-89
2022/02/21 01:43:36;;;;;;;32.45;11.07;;;;;;;4.44;59.67;92146.22;4964955;28;20593;-88
2022/02/21 01:46:15;;;;;;;36.92;11.65;;;;;;;4.42;59.34;92139.75;4978734;28;20034;-89
2022/02/21 01:48:56;;;;;;;28.27;10.37;;;;;;;4.40;59.10;92144.41;4976862;28;20026;-88
2022/02/21 01:51:30;;;;;;;29.27;11.00;;;;;;;4.45;58.84;92154.78;4965423;28;20042;-88
2022/02/21 01:54:08;;;;;;;;;;;;;;;;;;;;;
2022/02/21 01:57:09;;;;;;;36.42;12.20;;;;;;;4.38;59.06;92131.69;4985703;28;20038;-88
2022/02/21 01:59:55;;;;;;;31.75;11.70;;;;;;;4.38;59.52;92129.09;4970422;28;20053;-89
2022/02/21 02:02:45;;;;;;;29.95;10.88;;;;;;;4.53;60.36;92154.28;4996244;28;20053;-88
2022/02/21 02:05:23;;;;;;;;;;;;;;;4.83;61.87;92199.44;4959090;28;20047;-88
2022/02/21 02:08:00;;;;;;;35.83;11.55;;;;;;;4.29;62.41;92123.63;4969744;28;20438;-90
2022/02/21 02:10:39;;;;;;;29.77;10.90;;;;;;;4.30;62.60;92134.78;4961629;28;20037;-88
2022/02/21 02:16:11;;;;;;;31.88;12.23;;;;;;;4.68;64.89;92179.44;4959665;28;20046;-88
2022/02/21 02:18:46;;;;;;;31.27;11.10;;;;;;;4.58;64.94;92156.88;4979047;28;20043;-88
2022/02/21 02:21:33;;;;;;;;;;;;;;;;;;;;;
2022/02/21 02:24:17;;;;;;;;;;;;;;;;;;;;;
2022/02/21 02:27:08;;;;;;;;;;;;;;;;;;;;;
2022/02/21 02:29:44;;;;;;;30.17;10.68;;;;;;;4.18;65.88;92091.75;4961382;28;20039;-88
2022/02/21 02:32:22;;;;;;;27.42;11.40;;;;;;;4.06;65.73;92051.59;4956410;28;20042;-88
2022/02/21 02:35:27;;;;;;;29.70;11.73;;;;;;;4.10;66.65;92043.03;4960004;28;20035;-88
2022/02/21 02:37:57;;;;;;;27.98;11.93;;;;;;;4.05;67.00;92048.19;4974885;28;20053;-89
2022/02/21 02:40:37;;;;;;;29.80;12.27;;;;;;;4.12;69.28;92061.69;4963471;28;20058;-88
2022/02/21 02:43:06;;;;;;;28.77;11.52;;;;;;;4.42;69.33;92095.69;4961867;28;20708;-88
2022/02/21 02:46:00;;;;;;;;;;;;;;;;;;;;;
2022/02/21 02:48:49;;;;;;;29.33;11.05;;;;;;;4.37;68.20;92099.81;4964696;28;20043;-88
2022/02/21 02:51:33;;;;;;;26.20;11.30;;;;;;;4.00;68.41;92042.25;4944987;28;20437;-89
2022/02/21 02:54:16;;;;;;;30.88;10.73;;;;;;;4.27;68.66;92073.88;4959237;28;20046;-88
2022/02/21 02:56:57;;;;;;;;;;;;;;;;;;;;;
2022/02/21 02:59:51;;;;;;;29.48;10.23;;;;;;;4.50;70.53;92072.63;4964196;28;20077;-88
2022/02/21 03:03:11;;;;;;;27.07;10.90;;;;;;;4.11;72.92;92023.09;4946533;28;20498;-89
2022/02/21 03:05:44;;;;;;;27.50;10.05;;;;;;;4.15;73.72;92024.13;4975039;28;20050;-88
2022/02/21 03:08:14;;;;;;;28.48;9.88;;;;;;;4.11;73.87;92012.72;4969317;28;20381;-88
2022/02/21 03:11:39;;;;;;;28.23;11.23;;;;;;;4.48;73.46;92050.56;4978603;28;20484;-88
2022/02/21 03:14:14;;;;;;;20.13;8.98;;;;;;;4.44;73.51;92047.75;4975370;28;20042;-88
2022/02/21 03:16:52;;;;;;;31.25;10.93;;;;;;;4.32;74.62;91997.97;4988049;28;20040;-88
2022/02/21 03:19:33;;;;;;;24.40;9.48;;;;;;;4.50;73.55;92031.16;4958741;28;20062;-88
2022/02/21 03:22:04;;;;;;;25.75;10.13;;;;;;;4.20;72.89;91979.31;4958352;28;20046;-88
2022/02/21 03:24:37;;;;;;;31.08;10.90;;;;;;;4.05;73.55;91969.72;4978050;28;20057;-88
2022/02/21 03:27:26;;;;;;;;;;;;;;;;;;;;;
2022/02/21 03:30:04;;;;;;;25.15;9.80;;;;;;;4.29;72.92;92022.59;4975608;28;20086;-89
2022/02/21 03:32:41;;;;;;;29.42;10.35;;;;;;;3.99;73.57;91968.19;4986067;28;20077;-89
2022/02/21 03:35:22;;;;;;;26.88;9.48;;;;;;;4.15;73.54;91980.09;4974765;28;20034;-88
2022/02/21 03:37:56;;;;;;;26.40;8.70;;;;;;;3.95;72.97;91942.78;4992449;28;20053;-88
2022/02/21 03:40:40;;;;;;;;;;;;;;;;;;;;;
2022/02/21 03:43:37;;;;;;;24.20;9.63;;;;;;;3.95;72.33;91937.59;4978945;28;20039;-89
2022/02/21 03:46:13;;;;;;;22.70;8.70;;;;;;;4.04;71.77;91944.88;4992415;28;20042;-88
2022/02/21 03:48:48;;;;;;;27.33;9.40;;;;;;;4.07;71.60;91949.50;4962297;28;20125;-88
2022/02/21 03:51:24;;;;;;;23.65;9.80;;;;;;;4.25;71.38;91972.31;4990528;28;20045;-88
2022/02/21 03:54:12;;;;;;;;;;;;;;;;;;;;;
2022/02/21 03:57:08;;;;;;;25.00;9.50;;;;;;;4.35;70.91;91976.72;4987630;28;20122;-89
2022/02/21 03:59:39;;;;;;;27.13;9.98;;;;;;;4.16;71.86;91966.09;4977475;28;20395;-88
2022/02/21 04:02:16;;;;;;;23.55;9.73;;;;;;;4.50;71.89;92013.03;4977024;28;20046;-88
2022/02/21 04:05:20;;;;;;;;;;;;;;;;;;;;;
2022/02/21 04:08:02;;;;;;;37.42;12.43;;;;;;;4.14;72.94;91929.31;4986789;28;20034;-88
2022/02/21 04:10:48;;;;;;;;;;;;;;;;;;;;;
2022/02/21 04:13:36;;;;;;;32.83;13.55;;;;;;;4.16;73.21;91917.63;5012582;28;20402;-89
2022/02/21 04:16:31;;;;;;;;;;;;;;;;;;;;;
2022/02/21 04:21:58;;;;;;;30.05;12.93;;;;;;;4.46;74.17;91956.75;4959214;28;20488;-88
2022/02/21 04:24:47;;;;;;;30.10;11.98;;;;;;;4.31;73.67;91929.81;4977393;28;20026;-88
2022/02/21 04:27:20;;;;;;;26.40;11.10;;;;;;;4.72;73.99;91996.38;4979751;28;20053;-88
2022/02/21 04:32:57;;;;;;;26.42;10.45;;;;;;;4.55;75.34;91958.56;4973887;28;20042;-88
2022/02/21 04:35:29;;;;;;;23.10;10.48;;;;;;;4.21;75.73;91910.91;4944066;28;20058;-88
2022/02/21 04:38:00;;;;;;;28.80;10.50;;;;;;;4.36;75.40;91922.03;4984985;28;20137;-89
2022/02/21 04:40:52;;;;;;;27.17;11.15;;;;;;;4.65;75.06;91951.81;4995897;28;20065;-88
2022/02/21 04:43:27;;;;;;;30.52;9.70;;;;;;;4.31;75.46;91905.72;4993986;28;20085;-88
2022/02/21 04:46:07;;;;;;;31.15;9.80;;;;;;;4.51;77.08;91939.38;5013659;28;20525;-89
2022/02/21 04:48:39;;;;;;;21.77;9.27;;;;;;;4.29;76.83;91900.81;4976784;28;20495;-88
2022/02/21 04:52:01;;;;;;;20.30;8.23;;;;;;;4.17;77.27;91898.50;4960321;28;20049;-88
2022/02/21 04:57:30;;;;;;;22.42;7.80;;;;;;;3.88;79.09;91862.00;4989508;28;20116;-89
2022/02/21 05:00:16;;;;;;;;;;;;;;;;;;;;;
2022/02/21 05:03:00;;;;;;;27.98;8.20;;;;;;;3.77;80.31;91855.25;4966010;28;20031;-89
2022/02/21 05:05:39;;;;;;;23.67;7.68;;;;;;;3.66;80.73;91851.13;4978013;28;20046;-88
2022/02/21 05:08:28;;;;;;;;;;;;;;;;;;;;;
2022/02/21 05:11:06;;;;;;;16.30;7.43;;;;;;;3.74;81.81;91881.69;5013010;28;20064;-88
2022/02/21 05:13:44;;;;;;;21.50;7.47;;;;;;;3.72;81.87;91878.56;4980432;28;20489;-88
2022/02/21 05:16:23;;;;;;;;;;;;;;;;;;;;;
2022/02/21 05:19:06;;;;;;;;;;;;;;;;;;;;;
2022/02/21 05:22:09;;;;;;;22.60;8.00;;;;;;;3.66;82.42;91828.59;4998005;28;20518;-89
2022/02/21 05:24:45;;;;;;;15.18;7.18;;;;;;;3.69;82.34;91819.53;4978804;28;20030;-89
2022/02/21 05:27:51;;;;;;;17.25;7.07;;;;;;;4.27;83.34;91881.38;4996538;28;20521;-89
2022/02/21 05:30:29;;;;;;;20.33;6.72;;;;;;;4.29;82.91;91869.72;4959956;28;20048;-88
2022/02/21 05:33:04;;;;;;;16.35;6.43;;;;;;;4.07;82.54;91825.19;4975758;28;20069;-87
2022/02/21 05:35:50;;;;;;;15.20;6.72;;;;;;;4.00;82.94;91799.56;4982810;28;20298;-88
2022/02/21 05:38:35;;;;;;;;;;;;;;;;;;;;;
2022/02/21 05:41:20;;;;;;;15.55;6.38;;;;;;;4.26;82.50;91813.25;4985526;28;20034;-88
2022/02/21 05:44:01;;;;;;;15.13;6.90;;;;;;;4.66;83.45;91872.97;4997435;28;20068;-88
2022/02/21 05:46:49;;;;;;;;;;;;;;;;;;;;;
2022/02/21 05:49:25;;;;;;;18.77;7.00;;;;;;;4.27;84.28;91791.47;4993493;28;20073;-88
2022/02/21 05:51:53;;;;;;;26.27;7.70;;;;;;;4.46;84.25;91811.59;4961290;28;20510;-87
2022/02/21 05:54:24;;;;;;;15.73;7.47;;;;;;;4.33;84.59;91782.63;5005617;28;20032;-87
2022/02/21 05:56:50;;;;;;;18.60;7.18;;;;;;;4.53;84.18;91812.91;4982382;28;20050;-87
2022/02/21 05:59:30;;;;;;;20.02;7.00;;;;;;;4.49;84.10;91811.88;5025381;28;20040;-87
2022/02/21 06:02:00;;;;;;;14.02;5.75;;;;;;;4.53;83.66;91797.34;4991859;28;20049;-87
2022/02/21 06:04:32;;;;;;;16.10;6.35;;;;;;;4.70;83.43;91807.38;5003952;28;20120;-88
2022/02/21 06:07:02;;;;;;;13.70;5.53;;;;;;;4.41;83.94;91768.34;4982778;28;20070;-87
2022/02/21 06:09:36;;;;;;;13.00;5.90;;;;;;;4.47;83.86;91769.88;5001781;28;20109;-87
2022/02/21 06:12:25;;;;;;;13.57;5.72;;;;;;;4.66;83.54;91800.38;5002057;28;20046;-87
2022/02/21 06:14:57;;;;;;;27.30;10.38;;;;;;;4.39;83.41;91762.69;4997626;28;20037;-86
2022/02/21 06:17:25;;;;;;;16.02;7.18;;;;;;;4.30;83.49;91759.84;4985580;28;20042;-85
2022/02/21 06:19:50;;;;;;;20.48;7.43;;;;;;;4.31;83.14;91766.56;5001952;28;20043;-86
2022/02/21 06:22:21;;;;;;;18.50;8.13;;;;;;;4.79;82.44;91831.69;4985326;28;20048;-85
2022/02/21 06:24:47;;;;;;;18.83;6.38;;;;;;;4.76;82.43;91821.09;5013747;28;20390;-85
2022/02/21 06:27:13;;;;;;;16.67;6.57;;;;;;;4.59;82.48;91795.50;5038504;28;20037;-86
2022/02/21 06:29:39;;;;;;;23.35;6.85;;;;;;;4.73;82.78;91819.06;4982996;28;20066;-85
2022/02/21 06:32:05;;;;;;;22.63;6.78;;;;;;;4.69;82.89;91816.19;4977253;28;20057;-86
2022/02/21 06:34:30;;;;;;;14.07;5.85;;;;;;;4.63;82.87;91812.06;5029135;28;20042;-86
2022/02/21 06:36:56;;;;;;;12.98;5.70;;;;;;;4.64;82.40;91813.63;5001181;28;20463;-87
2022/02/21 06:39:22;;;;;;;17.15;7.07;;;;;;;4.58;81.99;91789.53;4985388;28;20394;-85
2022/02/21 06:41:49;;;;;;;19.95;7.00;;;;;;;5.40;78.83;91788.28;4968843;28;20049;-85
2022/02/21 06:44:14;;;;;;;15.23;6.75;;;;;;;5.54;77.30;91765.88;5018343;28;20034;-86
2022/02/21 06:46:44;;;;;;;27.33;7.57;;;;;;;5.80;76.53;91791.63;4981751;28;20034;-86
2022/02/21 06:49:10;;;;;;;19.73;7.30;;;;;;;6.16;75.52;91793.91;4986697;28;20045;-85
2022/02/21 06:51:36;;;;;;;19.33;7.30;;;;;;;6.01;75.10;91772.25;4981756;28;20054;-88
2022/02/21 06:54:07;;;;;;;23.23;8.48;;;;;;;5.81;75.43;91755.00;4966360;28;20129;-89
2022/02/21 06:56:34;;;;;;;15.35;7.43;;;;;;;6.03;75.20;91775.34;4951295;28;20042;-88
2022/02/21 06:59:23;;;;;;;16.00;6.75;;;;;;;6.55;74.06;91733.97;4966859;28;20487;-89
2022/02/21 07:02:08;;;;;;;;;;;;;;;;;;;;;
2022/02/21 07:05:02;;;;;;;15.10;5.90;;;;;;;8.83;65.45;91684.53;4978797;28;20058;-89
2022/02/21 07:11:08;;;;;;;;;;;;;;;;;;;;;
2022/02/21 07:14:11;;;;;;;19.52;7.50;;;;;;;10.90;59.98;91673.81;4996864;28;20372;-89
2022/02/21 07:16:59;;;;;;;21.95;7.30;;;;;;;13.23;53.59;91659.41;4958907;28;20076;-90
2022/02/21 07:19:33;;;;;;;16.55;6.82;;;;;;;14.86;48.21;91709.91;5003265;28;20095;-90
2022/02/21 07:22:10;;;;;;;17.88;6.35;;;;;;;15.98;45.55;91717.16;5002177;28;20095;-89
2022/02/21 07:25:07;;;;;;;;;;;;;;;;;;;;;
2022/02/21 07:28:01;;;;;;;23.52;10.50;;;;;;;14.61;45.41;91680.13;5001896;28;20042;-89
2022/02/21 07:30:43;;;;;;;17.38;7.00;;;;;;;13.09;48.30;91649.94;4982784;28;20081;-90
2022/02/21 07:33:23;;;;;;;;;;;;;;;;;;;;;
2022/02/21 07:36:26;;;;;;;18.25;8.13;;;;;;;11.33;51.21;91665.97;5035474;28;20041;-89
2022/02/21 07:39:02;;;;;;;;;;;;;;;;;;;;;
2022/02/21 07:41:33;;;;;;;22.98;8.48;;;;;;;9.93;54.24;91623.13;5017577;28;20037;-89
2022/02/21 07:44:16;;;;;;;18.25;7.60;;;;;;;12.19;50.23;91658.22;5011334;28;20475;-89
2022/02/21 07:47:09;;;;;;;;;;;;;;;;;;;;;
2022/02/21 07:49:55;;;;;;;23.20;7.90;;;;;;;10.92;52.15;91662.00;4985194;28;20053;-89
2022/02/21 07:52:31;;;;;;;20.42;8.07;;;;;;;10.00;54.91;91638.38;4987090;28;20029;-90
2022/02/21 07:55:24;;;;;;;22.40;7.35;;;;;;;9.42;58.53;91665.47;4986827;28;20060;-89
2022/02/21 07:58:13;;;;;;;18.42;7.95;;;;;;;8.74;60.20;91626.28;4980156;28;20035;-89
2022/02/21 08:00:59;;;;;;;;;;;;;;;8.60;60.17;91673.31;5002986;28;20041;-90
2022/02/21 08:03:50;;;;;;;;;;;;;;;;;;;;;
2022/02/21 08:06:25;;;;;;;26.50;8.50;;;;;;;7.05;62.58;91652.88;4979628;28;20042;-90
2022/02/21 08:09:34;;;;;;;19.40;7.22;;;;;;;7.28;60.72;91631.16;5019082;28;20027;-90
2022/02/21 08:12:09;;;;;;;19.13;8.00;;;;;;;8.00;60.32;91619.44;5017480;28;20041;-89
2022/02/21 08:14:57;;;;;;;21.25;9.60;;;;;;;8.60;60.39;91662.06;5018861;28;20041;-90
2022/02/21 08:17:59;;;;;;;23.45;8.00;;;;;;;8.14;65.08;91658.53;5016719;28;20073;-91
2022/02/21 08:21:13;;;;;;;19.20;7.38;;;;;;;7.35;68.23;91619.59;5001180;28;20034;-90
2022/02/21 08:24:22;;;;;;;16.83;6.97;;;;;;;7.72;67.84;91588.19;5014349;28;20046;-91
2022/02/21 08:27:28;;;;;;;22.25;8.30;;;;;;;7.21;65.92;91578.69;5009022;28;20068;-92
2022/02/21 08:30:42;;;;;;;;;;;;;;;;;;;;;
2022/02/21 08:33:33;;;;;;;;;;;;;;;;;;;;;
2022/02/21 08:39:05;;;;;;;18.08;7.00;;;;;;;6.42;63.33;91557.84;4995550;28;20053;-90
2022/02/21 08:45:06;;;;;;;15.70;6.78;;;;;;;7.98;63.67;91561.63;5030084;28;20045;-93
2022/02/21 08:48:07;;;;;;;16.80;7.32;;;;;;;7.72;60.55;91583.00;5012583;28;20047;-91
2022/02/21 08:50:48;;;;;;;;;;;;;;;;;;;;;
2022/02/21 08:53:23;;;;;;;18.40;7.07;;;;;;;8.58;65.16;91640.72;5016027;28;20479;-91
2022/02/21 08:56:40;;;;;;;;;;;;;;;;;;;;;
2022/02/21 09:02:42;;;;;;;;;;;;;;;;;;;;;
2022/02/21 09:05:46;;;;;;;;;;;;;;;;;;;;;
2022/02/21 09:08:50;;;;;;;;;;;;;;;;;;;;;
2022/02/21 09:11:34;;;;;;;17.30;6.90;;;;;;;8.46;63.62;91675.91;5005713;28;20140;-91
2022/02/21 09:14:24;;;;;;;;;;;;;;;;;;;;;
2022/02/21 09:20:06;;;;;;;19.13;7.32;;;;;;;7.13;65.45;91652.22;4976834;28;20033;-85
2022/02/21 09:22:34;;;;;;;17.20;7.57;;;;;;;6.93;64.57;91662.94;5003071;28;20026;-85
2022/02/21 09:24:59;;;;;;;19.95;7.50;;;;;;;6.89;64.39;91699.19;4979349;28;20049;-85
2022/02/21 09:27:27;;;;;;;18.42;7.00;;;;;;;6.95;61.98;91694.66;4994615;28;20384;-84
2022/02/21 09:29:53;;;;;;;15.48;6.50;;;;;;;7.57;62.49;91757.78;5012254;28;20080;-85
2022/02/21 09:32:19;;;;;;;13.73;5.78;;;;;;;7.44;66.27;91740.28;4943785;28;20484;-85
2022/02/21 09:34:44;;;;;;;9.52;4.20;;;;;;;7.44;61.33;91693.41;4976335;28;20039;-85
2022/02/21 09:37:10;;;;;;;12.85;5.28;;;;;;;7.48;61.99;91697.75;4960084;28;20060;-85
2022/02/21 09:39:35;;;;;;;16.17;4.65;;;;;;;7.43;60.60;91671.00;4976288;28;20046;-85
2022/02/21 09:42:02;;;;;;;7.32;3.55;;;;;;;7.14;58.57;91666.78;4993521;28;20403;-84
2022/02/21 09:44:27;;;;;;;6.97;2.95;;;;;;;7.61;59.05;91743.13;4995315;28;20026;-85
2022/02/21 09:46:55;;;;;;;6.43;2.78;;;;;;;7.76;55.95;91703.00;4975952;28;20112;-86
2022/02/21 09:49:21;;;;;;;7.78;2.72;;;;;;;7.96;57.66;91709.69;4973335;28;20096;-86
2022/02/21 09:51:47;;;;;;;5.05;2.45;;;;;;;8.04;56.50;91710.88;4945451;28;20046;-85
2022/02/21 09:54:14;;;;;;;4.32;1.40;;;;;;;8.01;49.14;91695.78;4993741;28;20408;-86
2022/02/21 09:56:47;;;;;;;2.45;1.20;;;;;;;7.85;49.29;91682.28;4974718;28;20038;-86
2022/02/21 09:59:13;;;;;;;2.67;1.05;;;;;;;7.79;48.95;91662.56;4980991;28;20041;-87
2022/02/21 10:01:39;;;;;;;2.05;1.10;;;;;;;7.89;46.85;91691.84;4997044;28;20399;-86
2022/02/21 10:04:05;;;;;;;2.85;1.30;;;;;;;8.03;46.71;91727.56;4980738;28;20051;-87
2022/02/21 10:06:32;;;;;;;3.70;1.77;;;;;;;7.85;45.26;91711.69;4940072;28;20027;-86
2022/02/21 10:09:04;;;;;;;4.05;1.27;;;;;;;7.91;45.60;91725.44;4945239;28;20049;-86
2022/02/21 10:11:32;;;;;;;1.75;1.00;;;;;;;7.74;43.21;91704.34;4971953;28;20125;-87
2022/02/21 10:14:09;;;;;;;1.23;0.90;;;;;;;7.84;41.04;91714.63;4974304;28;20499;-87
2022/02/21 10:16:40;;;;;;;1.92;1.10;;;;;;;7.90;40.48;91721.25;4973260;28;20049;-86
2022/02/21 10:19:17;;;;;;;1.88;1.00;;;;;;;7.69;41.08;91685.16;4973478;28;20042;-87
2022/02/21 10:22:22;;;;;;;4.07;1.13;;;;;;;8.00;42.65;91702.84;4969655;28;20066;-86
2022/02/21 10:24:50;;;;;;;5.63;2.67;;;;;;;7.71;50.10;91696.06;4957088;28;20068;-86
2022/02/21 10:27:24;;;;;;;3.05;1.50;;;;;;;7.87;48.74;91693.19;4972111;28;20037;-86
2022/02/21 10:30:00;;;;;;;3.70;1.50;;;;;;;8.72;45.63;91714.53;4973458;28;20050;-86
2022/02/21 10:32:37;;;;;;;2.92;1.42;;;;;;;9.33;43.86;91687.06;4969862;28;20734;-87
2022/02/21 10:35:25;;;;;;;2.08;1.10;;;;;;;10.35;41.80;91701.28;4972248;28;20049;-88
2022/02/21 10:37:57;;;;;;;1.58;1.10;;;;;;;11.15;38.48;91685.41;4991431;28;20034;-88
2022/02/21 10:40:27;;;;;;;5.55;2.05;;;;;;;11.46;36.17;91683.38;4995298;28;20069;-87
2022/02/21 10:43:17;;;;;;;1.90;0.98;;;;;;;11.75;29.71;91671.44;4958680;28;20447;-87
2022/02/21 10:45:44;;;;;;;3.60;1.40;;;;;;;12.10;29.91;91671.38;5000449;28;20042;-89
2022/02/21 10:48:11;;;;;;;4.40;0.95;;;;;;;12.41;29.41;91701.81;4977362;28;20117;-87
2022/02/21 10:50:59;;;;;;;1.42;0.90;;;;;;;12.49;28.25;91687.84;4978755;28;20042;-87
2022/02/21 10:53:40;;;;;;;6.38;1.92;;;;;;;12.75;28.04;91663.34;4978505;28;20093;-87
2022/02/21 10:56:07;;;;;;;9.18;2.80;;;;;;;13.34;27.45;91705.28;4961806;28;20053;-88
2022/02/21 10:58:32;;;;;;;24.98;8.48;;;;;;;13.43;25.32;91698.09;4978342;28;20046;-88
2022/02/21 11:01:00;;;;;;;18.17;6.88;;;;;;;13.68;25.59;91713.97;4978426;28;20094;-90
2022/02/21 11:03:27;;;;;;;4.68;1.20;;;;;;;13.33;24.20;91693.25;4987268;28;20085;-88
2022/02/21 11:05:55;;;;;;;3.75;1.50;;;;;;;12.99;24.51;91678.44;4998622;28;20042;-87
2022/02/21 11:08:21;;;;;;;7.80;3.85;;;;;;;13.25;23.93;91697.44;4992979;28;20034;-88
2022/02/21 11:10:53;;;;;;;3.10;1.58;;;;;;;13.64;24.11;91677.00;4982227;28;20029;-88
2022/02/21 11:13:20;;;;;;;2.05;1.27;;;;;;;13.86;23.47;91715.34;5017160;28;20046;-87
2022/02/21 11:15:47;;;;;;;2.60;1.20;;;;;;;13.91;22.45;91712.50;4981892;28;20042;-88
2022/02/21 11:18:14;;;;;;;0.30;0.30;;;;;;;13.75;22.54;91698.44;4997821;28;20053;-89
2022/02/21 11:20:39;;;;;;;0.40;0.40;;;;;;;13.81;21.62;91688.47;4997494;28;20038;-88
2022/02/21 11:23:05;;;;;;;1.48;0.73;;;;;;;13.75;21.18;91683.41;5015479;28;20079;-87
2022/02/21 11:25:38;;;;;;;2.83;0.73;;;;;;;13.87;21.49;91682.69;4997931;28;20041;-87
2022/02/21 11:28:41;;;;;;;10.38;3.25;;;;;;;13.88;20.52;91697.38;4998657;28;20083;-87
2022/02/21 11:31:08;;;;;;;35.58;12.32;;;;;;;13.76;19.17;91689.47;4942688;28;20089;-87
2022/02/21 11:34:05;;;;;;;4.97;1.60;;;;;;;13.65;19.44;91707.50;4984522;28;20042;-88
2022/02/21 11:36:31;;;;;;;4.68;1.90;;;;;;;13.86;19.47;91698.78;4978913;28;20057;-87
2022/02/21 11:38:57;;;;;;;3.10;1.23;;;;;;;13.77;18.65;91692.84;5016685;28;20051;-87
2022/02/21 11:41:34;;;;;;;4.03;1.65;;;;;;;13.51;19.45;91678.09;5017570;28;20111;-87
2022/02/21 11:44:18;;;;;;;3.72;1.50;;;;;;;13.68;19.12;91703.44;5034551;28;20037;-87
2022/02/21 11:46:44;;;;;;;0.68;0.52;;;;;;;13.69;19.25;91726.00;4998869;28;20577;-87
2022/02/21 11:49:25;;;;;;;3.53;1.38;;;;;;;13.67;18.76;91707.19;4980414;28;20041;-88
2022/02/21 11:51:50;;;;;;;0.52;0.50;;;;;;;13.51;17.98;91712.28;4986822;28;20030;-88
2022/02/21 11:54:18;;;;;;;1.73;1.00;;;;;;;13.40;18.07;91722.41;4997492;28;20053;-88
2022/02/21 11:59:21;;;;;;;2.97;1.60;;;;;;;13.57;18.40;91712.81;4997017;28;20414;-87
2022/02/21 12:01:48;;;;;;;5.13;2.40;;;;;;;13.53;18.74;91708.22;4981146;28;20112;-87
2022/02/21 12:04:20;;;;;;;1.48;0.60;;;;;;;13.88;18.70;91704.50;5014282;28;20324;-87
2022/02/21 12:07:25;;;;;;;2.67;1.60;;;;;;;14.10;18.01;91700.72;4964851;28;20484;-87
2022/02/21 12:10:12;;;;;;;2.03;1.08;;;;;;;14.15;18.20;91692.59;4963172;28;20466;-87
2022/02/21 12:12:58;;;;;;;3.03;1.33;;;;;;;14.03;17.99;91687.34;4996244;28;20045;-87
2022/02/21 12:15:27;;;;;;;4.30;2.20;;;;;;;14.27;18.54;91697.09;4997039;28;20049;-87
2022/02/21 12:18:02;;;;;;;1.50;0.88;;;;;;;13.92;18.12;91681.72;4977131;28;20034;-88
2022/02/21 12:20:27;;;;;;;4.85;1.02;;;;;;;14.01;19.00;91679.00;4984507;28;20037;-88
2022/02/21 12:23:05;;;;;;;1.60;0.88;;;;;;;14.16;18.53;91687.03;4994870;28;20026;-88
2022/02/21 12:25:43;;;;;;;1.83;1.25;;;;;;;14.13;18.18;91679.00;4996751;28;20117;-88
2022/02/21 12:28:19;;;;;;;0.40;0.40;;;;;;;14.20;19.20;91671.31;4996847;28;20041;-88
2022/02/21 12:30:47;;;;;;;0.68;0.60;;;;;;;13.82;19.22;91667.09;4993883;28;20108;-88
2022/02/21 12:33:26;;;;;;;2.25;1.08;;;;;;;13.75;19.34;91648.44;4994701;28;20108;-87
2022/02/21 12:36:08;;;;;;;0.40;0.40;;;;;;;13.87;19.37;91637.19;4977152;28;20660;-89
2022/02/21 12:38:42;;;;;;;3.55;2.05;;;;;;;13.90;19.05;91616.25;4977682;28;20045;-88
2022/02/21 12:41:10;;;;;;;2.50;1.30;;;;;;;13.61;18.40;91638.22;4961710;28;20042;-88
2022/02/21 12:43:50;;;;;;;1.63;1.00;;;;;;;13.53;18.94;91639.88;4978176;28;20034;-91
2022/02/21 12:46:20;;;;;;;3.58;1.80;;;;;;;13.27;18.76;91631.41;4977692;28;20039;-88
2022/02/21 12:48:46;;;;;;;1.55;0.80;;;;;;;13.16;19.03;91625.00;4977304;28;20072;-87
2022/02/21 12:51:31;;;;;;;0.82;0.60;;;;;;;13.36;18.45;91618.22;4977290;28;20121;-88
2022/02/21 12:54:06;;;;;;;0.60;0.60;;;;;;;12.69;18.55;91612.84;4977473;28;20042;-87
2022/02/21 12:56:50;;;;;;;0.50;0.50;;;;;;;12.93;20.07;91606.97;4976909;28;20523;-88
2022/02/21 12:59:21;;;;;;;0.40;0.40;;;;;;;13.28;19.47;91614.56;4970665;28;20065;-88
2022/02/21 13:01:49;;;;;;;0.77;0.50;;;;;;;13.27;19.28;91613.00;4996777;28;20348;-87
2022/02/21 13:04:15;;;;;;;0.85;0.40;;;;;;;13.27;19.02;91626.16;4979991;28;20491;-88
2022/02/21 13:06:41;;;;;;;0.40;0.40;;;;;;;13.20;19.36;91623.28;5013841;28;20080;-89
2022/02/21 13:09:09;;;;;;;0.85;0.55;;;;;;;13.08;19.14;91619.50;4980363;28;20050;-89
2022/02/21 13:11:37;;;;;;;0.75;0.50;;;;;;;13.09;18.16;91586.13;4996188;28;20069;-87
2022/02/21 13:14:04;;;;;;;0.40;0.40;;;;;;;12.35;19.04;91553.47;4996498;28;20065;-88
2022/02/21 13:16:33;;;;;;;0.40;0.40;;;;;;;12.67;19.21;91615.03;4996418;28;20037;-88
2022/02/21 13:19:00;;;;;;;0.65;0.40;;;;;;;12.64;19.87;91621.69;4981205;28;20049;-88
2022/02/21 13:21:41;;;;;;;0.70;0.50;;;;;;;12.56;19.18;91614.63;5015385;28;20026;-88
2022/02/21 13:24:15;;;;;;;0.88;0.57;;;;;;;12.63;19.05;91607.03;4976822;28;20042;-88
2022/02/21 13:26:48;;;;;;;1.65;0.82;;;;;;;12.97;19.17;91597.34;4994437;28;20038;-88
2022/02/21 13:29:36;;;;;;;1.27;0.73;;;;;;;12.80;18.88;91608.00;4977050;28;20057;-88
2022/02/21 13:32:30;;;;;;;1.65;0.70;;;;;;;12.73;18.47;91592.75;4979583;28;20117;-87
2022/02/21 13:35:08;;;;;;;0.40;0.40;;;;;;;12.71;18.25;91582.56;4996074;28;20037;-88
2022/02/21 13:37:34;;;;;;;0.30;0.30;;;;;;;12.15;18.40;91599.59;5013536;28;20030;-88
2022/02/21 13:40:02;;;;;;;0.40;0.40;;;;;;;12.27;18.95;91616.19;4995269;28;20084;-87
2022/02/21 13:42:31;;;;;;;0.40;0.40;;;;;;;12.49;18.85;91614.38;4999613;28;20068;-88
2022/02/21 13:45:33;;;;;;;0.30;0.30;;;;;;;12.41;19.28;91628.31;5001335;28;20152;-88
2022/02/21 13:48:08;;;;;;;0.80;0.50;;;;;;;12.17;18.61;91624.41;4912451;29;20044;-88
2022/02/21 13:50:43;;;;;;;2.08;0.47;;;;;;;12.12;19.12;91631.72;4997977;28;20125;-86
2022/02/21 13:57:22;;;;;;;;;;;;;;;;;;;;;
2022/02/21 14:01:04;;;;;;;0.63;0.50;;;;;;;12.53;18.41;91562.00;4945003;28;20516;-88